createdAt,value
2019-03-31T00:01:48.283Z,8.46
2019-03-31T00:04:20.371Z,8.43
2019-03-31T00:06:52.767Z,8.42
2019-03-31T00:09:25.258Z,8.40
2019-03-31T00:11:57.693Z,8.34
2019-03-31T00:14:30.530Z,8.24
2019-03-31T00:17:02.842Z,8.14
2019-03-31T00:19:34.938Z,8.14
2019-03-31T00:22:07.181Z,8.19
2019-03-31T00:24:39.262Z,8.17
2019-03-31T00:27:11.709Z,8.11
2019-03-31T00:29:43.787Z,8.05
2019-03-31T00:32:15.978Z,8.05
2019-03-31T00:34:48.076Z,8.02
2019-03-31T00:37:20.279Z,8.00
2019-03-31T00:39:53.232Z,7.83
2019-03-31T00:42:25.330Z,7.86
2019-03-31T00:44:57.772Z,7.73
2019-03-31T00:47:30.341Z,7.68
2019-03-31T00:50:02.946Z,7.61
2019-03-31T00:52:35.517Z,7.58
2019-03-31T00:55:07.790Z,7.56
2019-03-31T00:57:40.485Z,7.53
2019-03-31T01:00:14.889Z,7.49
2019-03-31T01:02:47.035Z,7.47
2019-03-31T01:05:19.640Z,7.50
2019-03-31T01:07:52.301Z,7.35
2019-03-31T01:10:25.224Z,7.39
2019-03-31T01:12:58.175Z,7.32
2019-03-31T01:15:30.521Z,7.46
2019-03-31T01:18:04.683Z,7.46
2019-03-31T01:20:37.128Z,7.39
2019-03-31T01:23:09.644Z,7.33
2019-03-31T01:25:42.367Z,7.24
2019-03-31T01:43:06.472Z,7.09
2019-03-31T01:45:38.758Z,7.10
2019-03-31T01:48:11.593Z,6.97
2019-03-31T01:50:44.513Z,6.98
2019-03-31T01:53:16.676Z,6.90
2019-03-31T01:55:49.358Z,6.96
2019-03-31T01:58:22.264Z,6.96
2019-03-31T02:00:58.113Z,6.82
2019-03-31T02:03:30.388Z,6.75
2019-03-31T02:06:03.114Z,6.82
2019-03-31T02:08:35.303Z,6.93
2019-03-31T02:11:07.920Z,6.85
2019-03-31T02:13:41.592Z,6.80
2019-03-31T02:16:15.168Z,6.82
2019-03-31T02:18:48.523Z,6.84
2019-03-31T02:21:21.145Z,6.70
2019-03-31T02:23:53.595Z,6.71
2019-03-31T02:26:26.220Z,6.72
2019-03-31T02:28:59.130Z,6.61
2019-03-31T02:31:32.133Z,6.62
2019-03-31T02:34:04.293Z,6.61
2019-03-31T02:36:36.468Z,6.68
2019-03-31T02:39:09.296Z,6.68
2019-03-31T02:41:41.378Z,6.59
2019-03-31T02:44:14.247Z,6.57
2019-03-31T02:46:47.954Z,6.58
2019-03-31T02:49:20.072Z,6.50
2019-03-31T02:51:52.504Z,6.44
2019-03-31T02:54:25.025Z,6.46
2019-03-31T02:56:58.515Z,6.47
2019-03-31T02:59:35.132Z,6.35
2019-03-31T03:02:08.087Z,6.40
2019-03-31T03:04:41.765Z,6.45
2019-03-31T03:07:17.622Z,6.40
2019-03-31T03:09:53.118Z,6.35
2019-03-31T03:12:29.053Z,6.29
2019-03-31T03:15:04.456Z,6.24
2019-03-31T03:17:36.538Z,6.28
2019-03-31T03:20:09.435Z,6.20
2019-03-31T03:22:42.248Z,6.23
2019-03-31T03:25:14.387Z,6.20
2019-03-31T03:27:46.947Z,6.15
2019-03-31T03:30:19.115Z,6.14
2019-03-31T03:33:13.709Z,6.12
2019-03-31T03:35:25.397Z,6.08
2019-03-31T03:37:57.541Z,6.04
2019-03-31T03:40:29.949Z,6.02
2019-03-31T03:43:07.733Z,5.96
2019-03-31T03:45:40.066Z,6.04
2019-03-31T03:48:16.391Z,5.96
2019-03-31T03:50:48.882Z,5.93
2019-03-31T03:53:22.050Z,5.92
2019-03-31T03:55:54.449Z,5.81
2019-03-31T03:58:27.373Z,5.80
2019-03-31T04:00:59.733Z,5.90
2019-03-31T04:03:31.878Z,5.78
2019-03-31T04:06:04.103Z,5.82
2019-03-31T04:08:37.337Z,5.76
2019-03-31T04:11:21.484Z,5.80
2019-03-31T04:13:53.323Z,5.74
2019-03-31T04:16:26.383Z,5.68
2019-03-31T04:18:58.944Z,5.78
2019-03-31T04:21:31.114Z,5.79
2019-03-31T04:24:03.350Z,5.78
2019-03-31T04:26:35.963Z,5.75
2019-03-31T04:29:08.576Z,5.74
2019-03-31T04:31:41.094Z,5.82
2019-03-31T04:34:14.131Z,5.81
2019-03-31T04:36:46.269Z,5.86
2019-03-31T04:39:19.396Z,5.98
2019-03-31T04:41:52.178Z,5.98
2019-03-31T04:44:30.638Z,5.92
2019-03-31T04:47:03.199Z,5.96
2019-03-31T04:49:37.268Z,6.04
2019-03-31T04:52:09.874Z,5.99
2019-03-31T04:54:42.060Z,6.00
2019-03-31T04:57:14.122Z,6.08
2019-03-31T04:59:46.738Z,6.11
2019-03-31T05:02:19.024Z,6.15
2019-03-31T05:04:51.276Z,6.11
2019-03-31T05:07:23.846Z,6.12
2019-03-31T05:09:55.973Z,6.11
2019-03-31T05:12:28.191Z,6.14
2019-03-31T05:15:00.775Z,6.16
2019-03-31T05:17:35.697Z,6.18
2019-03-31T05:20:08.835Z,6.18
2019-03-31T05:22:40.923Z,6.22
2019-03-31T05:25:13.247Z,6.21
2019-03-31T05:27:45.359Z,6.25
2019-03-31T05:30:17.455Z,6.25
2019-03-31T05:32:49.951Z,6.25
2019-03-31T05:35:22.061Z,6.31
2019-03-31T05:37:54.252Z,6.31
2019-03-31T05:40:26.357Z,6.32
2019-03-31T05:42:59.353Z,6.28
2019-03-31T05:45:31.473Z,6.33
2019-03-31T05:48:07.207Z,6.37
2019-03-31T05:50:39.442Z,6.40
2019-03-31T05:53:11.556Z,6.50
2019-03-31T05:55:43.699Z,6.50
2019-03-31T05:58:16.656Z,6.54
2019-03-31T06:00:50.462Z,6.59
2019-03-31T06:03:23.025Z,6.63
2019-03-31T06:05:55.119Z,6.63
2019-03-31T06:08:27.658Z,6.70
2019-03-31T06:10:59.869Z,6.75
2019-03-31T06:13:32.900Z,6.68
2019-03-31T06:16:05.988Z,6.76
2019-03-31T06:18:38.519Z,6.83
2019-03-31T06:21:11.203Z,6.87
2019-03-31T06:23:43.690Z,6.88
2019-03-31T06:26:16.303Z,6.96
2019-03-31T06:28:48.403Z,6.85
2019-03-31T06:31:20.607Z,6.94
2019-03-31T06:33:52.813Z,6.93
2019-03-31T06:36:25.843Z,7.02
2019-03-31T06:38:57.917Z,7.03
2019-03-31T06:41:30.036Z,7.08
2019-03-31T06:44:03.170Z,7.11
2019-03-31T06:46:35.323Z,7.11
2019-03-31T06:49:07.464Z,7.15
2019-03-31T06:51:39.588Z,7.19
2019-03-31T06:54:11.740Z,7.17
2019-03-31T06:56:47.074Z,7.30
2019-03-31T06:59:19.324Z,7.38
2019-03-31T07:01:51.800Z,7.36
2019-03-31T07:04:24.437Z,7.37
2019-03-31T07:06:56.551Z,7.41
2019-03-31T07:09:29.113Z,7.49
2019-03-31T07:12:01.350Z,7.54
2019-03-31T07:14:33.484Z,7.52
2019-03-31T07:17:05.572Z,7.63
2019-03-31T07:19:38.015Z,7.76
2019-03-31T07:22:11.310Z,7.80
2019-03-31T07:24:43.793Z,7.79
2019-03-31T07:27:16.374Z,7.83
2019-03-31T07:29:49.440Z,8.00
2019-03-31T07:32:21.589Z,8.14
2019-03-31T07:34:54.080Z,8.17
2019-03-31T07:37:27.035Z,8.16
2019-03-31T07:39:59.593Z,8.26
2019-03-31T07:42:32.640Z,8.25
2019-03-31T07:45:04.783Z,8.28
2019-03-31T07:47:37.421Z,8.44
2019-03-31T07:50:11.227Z,8.50
2019-03-31T07:52:45.812Z,8.52
2019-03-31T07:55:25.506Z,8.53
2019-03-31T07:57:58.300Z,8.69
2019-03-31T08:00:30.395Z,8.74
2019-03-31T08:03:03.673Z,8.70
2019-03-31T08:05:37.676Z,8.63
2019-03-31T08:08:10.413Z,8.64
2019-03-31T08:10:43.673Z,8.68
2019-03-31T08:13:15.896Z,8.78
2019-03-31T08:15:48.543Z,8.78
2019-03-31T08:18:21.298Z,8.86
2019-03-31T08:20:53.885Z,8.85
2019-03-31T08:23:26.815Z,8.91
2019-03-31T08:25:59.307Z,9.03
2019-03-31T08:28:31.569Z,9.26
2019-03-31T08:31:03.845Z,9.56
2019-03-31T08:33:37.167Z,10.08
2019-03-31T08:36:09.334Z,9.97
2019-03-31T08:38:42.121Z,10.22
2019-03-31T08:41:14.665Z,10.22
2019-03-31T08:43:47.956Z,10.38
2019-03-31T08:46:26.477Z,10.30
2019-03-31T08:48:59.674Z,10.27
2019-03-31T08:51:32.751Z,10.15
2019-03-31T08:54:05.367Z,10.19
2019-03-31T08:56:38.883Z,10.11
2019-03-31T08:59:11.756Z,10.10
2019-03-31T09:01:45.253Z,10.24
2019-03-31T09:04:17.783Z,10.17
2019-03-31T09:06:51.113Z,10.35
2019-03-31T09:09:23.681Z,10.23
2019-03-31T09:11:56.279Z,10.26
2019-03-31T09:14:28.517Z,10.22
2019-03-31T09:17:00.818Z,10.05
2019-03-31T09:19:33.397Z,10.12
2019-03-31T09:22:06.207Z,10.13
2019-03-31T09:24:39.474Z,10.18
2019-03-31T09:27:12.190Z,10.02
2019-03-31T09:29:44.696Z,9.99
2019-03-31T09:32:18.267Z,9.99
2019-03-31T09:34:51.078Z,10.01
2019-03-31T09:37:23.785Z,10.03
2019-03-31T09:39:55.910Z,9.95
2019-03-31T09:42:28.580Z,9.99
2019-03-31T09:45:00.850Z,9.97
2019-03-31T09:47:32.950Z,10.08
2019-03-31T09:50:06.674Z,10.05
2019-03-31T09:52:39.650Z,10.27
2019-03-31T09:55:13.124Z,10.27
2019-03-31T09:57:46.761Z,10.47
2019-03-31T10:00:25.164Z,11.00
2019-03-31T10:02:57.339Z,11.39
2019-03-31T10:05:29.592Z,11.91
2019-03-31T10:08:03.819Z,12.73
2019-03-31T10:10:37.134Z,13.49
2019-03-31T10:13:09.376Z,14.14
2019-03-31T10:15:41.965Z,14.45
2019-03-31T10:18:14.166Z,15.43
2019-03-31T10:20:48.034Z,16.28
2019-03-31T10:23:21.849Z,17.16
2019-03-31T10:25:54.176Z,17.35
2019-03-31T10:28:26.808Z,17.53
2019-03-31T10:30:59.375Z,17.99
2019-03-31T10:33:33.528Z,18.46
2019-03-31T10:36:06.156Z,17.44
2019-03-31T10:38:38.334Z,17.76
2019-03-31T10:41:10.889Z,17.72
2019-03-31T10:43:43.639Z,17.87
2019-03-31T10:46:16.082Z,17.67
2019-03-31T10:48:48.640Z,17.43
2019-03-31T10:51:21.215Z,17.94
2019-03-31T10:53:53.388Z,18.16
2019-03-31T10:56:26.100Z,18.69
2019-03-31T10:58:58.785Z,19.32
2019-03-31T11:01:31.327Z,18.31
2019-03-31T11:04:04.377Z,18.96
2019-03-31T11:06:36.464Z,18.12
2019-03-31T11:09:09.901Z,18.46
2019-03-31T11:11:44.324Z,17.42
2019-03-31T11:14:17.275Z,18.23
2019-03-31T11:16:49.987Z,18.50
2019-03-31T11:19:23.418Z,18.22
2019-03-31T11:22:00.536Z,18.22
2019-03-31T11:24:33.214Z,18.27
2019-03-31T11:27:05.970Z,17.85
2019-03-31T11:29:38.275Z,18.26
2019-03-31T11:32:12.121Z,18.47
2019-03-31T11:34:46.882Z,18.89
2019-03-31T11:37:18.936Z,18.16
2019-03-31T11:39:51.445Z,18.05
2019-03-31T11:42:24.009Z,18.76
2019-03-31T11:44:56.405Z,19.35
2019-03-31T11:47:28.965Z,18.41
2019-03-31T11:50:01.578Z,18.85
2019-03-31T11:52:35.308Z,19.12
2019-03-31T11:55:09.078Z,20.20
2019-03-31T11:57:41.722Z,20.87
2019-03-31T12:00:16.889Z,20.59
2019-03-31T12:02:48.990Z,19.92
2019-03-31T12:05:21.063Z,20.25
2019-03-31T12:07:53.558Z,19.09
2019-03-31T12:10:26.150Z,19.07
2019-03-31T12:12:59.041Z,19.91
2019-03-31T12:15:31.609Z,20.90
2019-03-31T12:18:03.925Z,20.80
2019-03-31T12:20:36.410Z,19.15
2019-03-31T12:23:08.683Z,19.22
2019-03-31T12:25:41.364Z,19.86
2019-03-31T12:28:13.361Z,20.19
2019-03-31T12:30:46.258Z,20.44
2019-03-31T12:33:18.408Z,19.67
2019-03-31T12:35:50.931Z,19.23
2019-03-31T12:38:23.025Z,19.30
2019-03-31T12:40:55.152Z,20.74
2019-03-31T12:43:27.469Z,21.04
2019-03-31T12:45:59.625Z,20.62
2019-03-31T12:48:31.990Z,21.37
2019-03-31T12:51:04.613Z,21.97
2019-03-31T12:53:37.198Z,20.87
2019-03-31T12:56:10.799Z,21.15
2019-03-31T12:58:43.924Z,20.54
2019-03-31T13:01:17.174Z,20.21
2019-03-31T13:03:50.478Z,19.67
2019-03-31T13:06:22.512Z,19.62
2019-03-31T13:08:54.639Z,20.37
2019-03-31T13:11:26.789Z,20.47
2019-03-31T13:13:58.895Z,20.82
2019-03-31T13:16:31.500Z,19.19
2019-03-31T13:19:03.694Z,19.25
2019-03-31T13:21:35.782Z,19.47
2019-03-31T13:24:07.872Z,19.64
2019-03-31T13:26:44.010Z,19.71
2019-03-31T13:29:16.530Z,19.14
2019-03-31T13:31:48.731Z,18.91
2019-03-31T13:34:20.921Z,19.49
2019-03-31T13:36:53.475Z,19.68
2019-03-31T13:39:25.938Z,19.54
2019-03-31T13:41:58.733Z,20.04
2019-03-31T13:44:30.962Z,20.28
2019-03-31T13:47:05.341Z,18.89
2019-03-31T13:49:38.186Z,18.48
2019-03-31T13:52:10.486Z,19.83
2019-03-31T13:54:43.100Z,20.32
2019-03-31T13:57:16.946Z,17.88
2019-03-31T13:59:49.449Z,19.22
2019-03-31T14:02:21.616Z,20.63
2019-03-31T14:04:54.649Z,19.79
2019-03-31T14:07:27.124Z,17.33
2019-03-31T14:09:59.675Z,18.87
2019-03-31T14:12:32.508Z,19.77
2019-03-31T14:15:18.471Z,19.83
2019-03-31T14:17:40.332Z,20.00
2019-03-31T14:20:12.944Z,20.79
2019-03-31T14:22:47.953Z,19.88
2019-03-31T14:25:20.496Z,20.14
2019-03-31T14:27:53.357Z,20.37
2019-03-31T14:30:27.969Z,20.06
2019-03-31T14:33:00.108Z,20.02
2019-03-31T14:35:32.658Z,18.68
2019-03-31T14:38:07.945Z,19.00
2019-03-31T14:40:41.002Z,19.47
2019-03-31T14:43:13.511Z,19.15
2019-03-31T14:45:45.853Z,19.83
2019-03-31T14:48:18.685Z,18.67
2019-03-31T14:50:50.980Z,18.76
2019-03-31T14:53:23.160Z,18.88
2019-03-31T14:55:55.504Z,19.26
2019-03-31T14:58:28.186Z,18.86
2019-03-31T15:01:00.692Z,18.62
2019-03-31T15:03:33.411Z,17.88
2019-03-31T15:06:05.848Z,17.89
2019-03-31T15:08:38.714Z,17.71
2019-03-31T15:11:11.016Z,17.91
2019-03-31T15:13:44.116Z,17.80
2019-03-31T15:16:17.125Z,17.44
2019-03-31T15:18:49.537Z,16.97
2019-03-31T15:21:21.897Z,16.46
2019-03-31T15:23:54.499Z,16.72
2019-03-31T15:26:27.554Z,16.49
2019-03-31T15:29:00.699Z,15.96
2019-03-31T15:31:33.110Z,15.26
2019-03-31T15:34:05.812Z,14.92
2019-03-31T15:36:39.601Z,14.09
2019-03-31T15:39:14.365Z,13.99
2019-03-31T15:41:46.946Z,13.90
2019-03-31T15:44:19.775Z,14.63
2019-03-31T15:46:51.892Z,14.68
2019-03-31T15:49:24.088Z,14.72
2019-03-31T15:51:56.403Z,14.61
2019-03-31T15:54:28.575Z,14.34
2019-03-31T15:57:00.946Z,14.30
2019-03-31T15:59:33.643Z,14.22
2019-03-31T16:02:06.638Z,13.94
2019-03-31T16:04:38.904Z,14.16
2019-03-31T16:07:11.096Z,14.26
2019-03-31T16:09:42.482Z,14.06
2019-03-31T16:12:14.004Z,14.13
2019-03-31T16:14:45.506Z,14.06
2019-03-31T16:17:17.160Z,14.14
2019-03-31T16:19:49.272Z,13.39
2019-03-31T16:22:21.994Z,13.68
2019-03-31T16:24:55.584Z,13.85
2019-03-31T16:27:26.899Z,13.78
2019-03-31T16:29:58.251Z,13.75
2019-03-31T16:32:29.656Z,13.48
2019-03-31T16:35:01.569Z,13.45
2019-03-31T16:37:33.210Z,13.52
2019-03-31T16:40:04.853Z,13.54
2019-03-31T16:42:36.197Z,13.51
2019-03-31T16:45:09.642Z,13.15
2019-03-31T16:47:41.255Z,13.12
2019-03-31T16:50:12.895Z,13.18
2019-03-31T16:52:44.678Z,13.08
2019-03-31T16:55:16.553Z,12.93
2019-03-31T16:57:48.242Z,12.91
2019-03-31T17:02:59.425Z,12.81
2019-03-31T17:05:31.754Z,12.55
2019-03-31T17:08:03.124Z,12.55
2019-03-31T17:10:35.154Z,12.54
2019-03-31T17:13:07.263Z,12.57
2019-03-31T17:15:38.996Z,12.58
2019-03-31T17:18:11.050Z,12.59
2019-03-31T17:20:45.292Z,12.48
2019-03-31T17:23:17.025Z,12.32
2019-03-31T17:25:50.007Z,12.25
2019-03-31T17:28:22.675Z,12.18
2019-03-31T17:30:54.057Z,12.12
2019-03-31T17:33:25.459Z,12.05
2019-03-31T17:35:56.841Z,11.94
2019-03-31T17:38:28.592Z,11.90
2019-03-31T17:41:00.106Z,11.75
2019-03-31T17:43:31.439Z,11.59
2019-03-31T17:46:02.787Z,11.54
2019-03-31T17:48:34.220Z,11.30
2019-03-31T17:51:06.344Z,11.09
2019-03-31T17:53:37.838Z,11.09
2019-03-31T17:56:09.676Z,10.96
2019-03-31T17:58:41.767Z,10.83
2019-03-31T18:01:13.247Z,10.64
2019-03-31T18:03:44.619Z,10.49
2019-03-31T18:06:16.027Z,10.30
2019-03-31T18:08:47.735Z,10.22
2019-03-31T18:11:19.095Z,10.16
2019-03-31T18:13:50.840Z,9.97
2019-03-31T18:16:22.226Z,9.75
2019-03-31T18:18:58.971Z,9.66
2019-03-31T18:21:30.418Z,9.54
2019-03-31T18:24:03.897Z,9.47
2019-03-31T18:26:36.690Z,9.40
2019-03-31T18:29:08.004Z,9.22
2019-03-31T18:31:39.363Z,9.16
2019-03-31T18:34:11.152Z,9.03
2019-03-31T18:36:45.748Z,8.90
2019-03-31T18:39:17.529Z,8.77
2019-03-31T18:41:49.053Z,8.67
2019-03-31T18:44:23.407Z,8.55
2019-03-31T18:46:54.827Z,8.43
2019-03-31T18:49:26.501Z,8.34
2019-03-31T18:51:58.193Z,8.29
2019-03-31T18:54:47.011Z,8.14
2019-03-31T18:57:35.125Z,8.13
2019-03-31T19:00:49.231Z,7.91
2019-03-31T19:03:45.127Z,7.83
2019-03-31T19:06:41.556Z,7.70
2019-03-31T19:09:20.164Z,7.60
2019-03-31T19:12:09.796Z,7.32
2019-03-31T19:15:08.738Z,7.32
2019-03-31T19:18:02.179Z,7.14
2019-03-31T19:20:42.299Z,7.00
2019-03-31T19:23:24.259Z,7.01
2019-03-31T19:26:08.237Z,6.89
2019-03-31T19:28:50.805Z,6.95
2019-03-31T19:31:35.806Z,6.82
2019-03-31T19:34:18.564Z,6.68
2019-03-31T19:37:04.664Z,6.57
2019-03-31T19:39:57.680Z,6.45
2019-03-31T19:42:51.064Z,6.25
2019-03-31T19:45:42.589Z,6.20
2019-03-31T19:48:25.555Z,6.20
2019-03-31T19:51:09.788Z,6.11
2019-03-31T19:54:00.271Z,6.01
2019-03-31T19:56:51.270Z,5.87
2019-03-31T19:59:42.097Z,5.80
2019-03-31T20:02:30.631Z,5.77
2019-03-31T20:05:14.108Z,5.64
2019-03-31T20:07:54.388Z,5.61
2019-03-31T20:10:44.741Z,5.68
2019-03-31T20:13:34.124Z,5.54
2019-03-31T20:16:28.321Z,5.54
2019-03-31T20:19:25.569Z,5.54
2019-03-31T20:22:14.469Z,5.45
2019-03-31T20:24:54.236Z,5.37
2019-03-31T20:27:45.228Z,5.33
2019-03-31T20:30:51.100Z,5.27
2019-03-31T20:33:38.537Z,5.17
2019-03-31T20:36:31.915Z,5.10
2019-03-31T20:39:28.607Z,4.99
2019-03-31T20:42:24.934Z,4.98
2019-03-31T20:44:56.901Z,4.79
2019-03-31T20:47:28.295Z,4.77
2019-03-31T20:50:00.681Z,4.70
2019-03-31T20:52:32.247Z,4.63
2019-03-31T20:55:15.671Z,4.45
2019-03-31T20:57:36.798Z,4.44
2019-03-31T21:07:14.926Z,4.39
2019-03-31T21:09:46.989Z,4.24
2019-03-31T21:12:18.694Z,4.27
2019-03-31T21:14:50.831Z,4.23
2019-03-31T21:17:22.728Z,4.20
2019-03-31T21:19:54.024Z,4.15
2019-03-31T21:22:25.336Z,4.12
2019-03-31T21:24:56.628Z,4.07
2019-03-31T21:27:28.308Z,4.09
2019-03-31T21:30:00.037Z,4.01
2019-03-31T21:32:31.668Z,3.88
2019-03-31T21:35:02.958Z,3.82
2019-03-31T21:37:34.654Z,3.78
2019-03-31T21:40:06.412Z,3.75
2019-03-31T21:42:37.690Z,3.84
2019-03-31T21:45:09.223Z,3.70
2019-03-31T21:47:40.880Z,3.67
2019-03-31T21:50:12.383Z,3.60
2019-03-31T21:52:44.803Z,3.50
2019-03-31T21:55:16.409Z,3.41
2019-03-31T21:57:48.110Z,3.09
2019-03-31T22:00:22.099Z,3.15
2019-03-31T22:02:53.774Z,3.13
2019-03-31T22:05:25.187Z,3.18
2019-03-31T22:07:56.882Z,3.14
2019-03-31T22:10:28.207Z,3.12
2019-03-31T22:12:59.526Z,3.02
2019-03-31T22:15:31.284Z,3.02
2019-03-31T22:18:02.591Z,2.98
2019-03-31T22:20:33.858Z,2.91
2019-03-31T22:23:06.499Z,2.89
2019-03-31T22:25:38.490Z,2.85
2019-03-31T22:28:10.520Z,2.80
2019-03-31T22:30:42.084Z,2.77
2019-03-31T22:33:13.679Z,2.68
2019-03-31T22:36:04.147Z,2.65
2019-03-31T22:38:35.455Z,2.59
2019-03-31T22:41:07.074Z,2.54
2019-03-31T22:43:38.534Z,2.50
2019-03-31T22:46:10.251Z,2.43
2019-03-31T22:48:42.072Z,2.43
2019-03-31T22:51:13.872Z,2.33
2019-03-31T22:53:45.893Z,2.29
2019-03-31T22:56:17.248Z,2.25
2019-03-31T22:58:48.991Z,2.21
2019-03-31T23:01:20.386Z,2.20
2019-03-31T23:03:52.045Z,2.15
2019-03-31T23:06:23.377Z,2.16
2019-03-31T23:08:55.077Z,2.10
2019-03-31T23:11:27.327Z,2.01
2019-03-31T23:13:58.959Z,2.04
2019-03-31T23:16:30.844Z,1.93
2019-03-31T23:19:02.495Z,1.95
2019-03-31T23:21:34.252Z,1.94
2019-03-31T23:24:06.861Z,1.84
2019-03-31T23:26:38.917Z,1.80
2019-03-31T23:29:10.261Z,1.73
2019-03-31T23:31:44.225Z,1.74
2019-03-31T23:34:16.062Z,1.74
2019-03-31T23:36:47.412Z,1.67
2019-03-31T23:39:18.706Z,1.68
2019-03-31T23:41:50.625Z,1.58
2019-03-31T23:44:22.042Z,1.49
2019-03-31T23:46:53.355Z,1.49
2019-03-31T23:49:24.713Z,1.43
2019-03-31T23:51:56.172Z,1.42
2019-03-31T23:54:27.448Z,1.39
2019-03-31T23:56:59.060Z,1.30
2019-03-31T23:59:30.368Z,1.31
